Time;durP1;ratioP1;P1;durP2;ratioP2;P2;SDS_P1;SDS_P2;PMS_P1;PMS_P2;Temp;Humidity;BMP_temperature;BMP_pressure;BME280_temperature;BME280_humidity;BME280_pressure;Samples;Min_cycle;Max_cycle;Signal;HPM_P1;HPM_P2
2022/11/05 00:09:39;;;;;;;29.40;16.40;;;;;;;13.24;49.24;93453.91;5037938;28;20071;-77
2022/11/05 00:17:40;;;;;;;28.50;17.20;;;;;;;13.05;50.05;93444.97;5037237;28;20492;-76
2022/11/05 00:20:08;;;;;;;28.65;15.88;;;;;;;12.98;49.81;93423.38;5019825;28;20033;-76
2022/11/05 00:25:18;;;;;;;32.47;17.98;;;;;;;13.19;49.99;93443.47;5037809;28;20032;-77
2022/11/05 00:27:49;;;;;;;28.80;16.63;;;;;;;12.92;50.29;93424.72;5036951;28;20429;-76
2022/11/05 00:30:21;;;;;;;22.80;15.68;;;;;;;13.08;50.52;93433.59;5037229;28;20025;-76
2022/11/05 00:32:48;;;;;;;26.35;15.27;;;;;;;13.11;50.15;93428.34;5037671;28;20949;-76
2022/11/05 00:35:14;;;;;;;28.85;15.18;;;;;;;12.88;50.79;93430.75;5036964;28;20031;-76
2022/11/05 00:37:40;;;;;;;25.95;15.38;;;;;;;12.65;50.82;93416.31;5037329;28;20098;-76
2022/11/05 00:40:06;;;;;;;27.83;14.35;;;;;;;12.89;50.80;93437.63;5038259;28;20497;-76
2022/11/05 00:45:16;;;;;;;25.27;14.50;;;;;;;13.08;49.62;93436.25;5037576;28;20547;-76
2022/11/05 00:50:26;;;;;;;28.95;15.25;;;;;;;13.05;50.04;93418.25;5036718;28;20027;-76
2022/11/05 00:52:56;;;;;;;23.50;14.75;;;;;;;13.00;49.57;93399.81;5037576;28;20021;-76
2022/11/05 00:55:32;;;;;;;20.67;14.60;;;;;;;13.20;49.49;93429.00;5035912;28;20755;-75
2022/11/05 00:57:59;;;;;;;25.90;14.13;;;;;;;13.24;49.24;93416.53;5034334;28;20033;-75
2022/11/05 01:00:27;;;;;;;24.15;14.32;;;;;;;13.23;49.20;93419.53;5037181;28;20032;-76
2022/11/05 01:02:56;;;;;;;21.98;14.13;;;;;;;13.11;49.16;93379.50;5036534;28;20024;-76
2022/11/05 01:05:22;;;;;;;23.00;13.52;;;;;;;13.11;49.10;93384.84;5034636;28;20028;-76
2022/11/05 01:07:47;;;;;;;27.08;15.32;;;;;;;13.26;49.57;93410.84;5037118;28;20056;-76
2022/11/05 01:10:12;;;;;;;21.45;13.82;;;;;;;13.28;49.22;93412.06;5036829;28;20384;-76
2022/11/05 01:12:38;;;;;;;27.95;13.52;;;;;;;13.29;49.16;93410.19;5036426;28;20071;-76
2022/11/05 01:15:04;;;;;;;25.48;15.40;;;;;;;13.07;49.15;93378.63;5037041;28;20112;-77
2022/11/05 01:17:29;;;;;;;19.70;13.10;;;;;;;13.12;49.07;93386.41;5031797;28;20425;-76
2022/11/05 01:19:55;;;;;;;24.50;14.02;;;;;;;13.23;49.20;93411.53;5020806;28;20645;-75
2022/11/05 01:22:20;;;;;;;24.33;14.13;;;;;;;13.35;49.28;93400.78;5036901;28;20024;-76
2022/11/05 01:24:46;;;;;;;23.83;12.93;;;;;;;13.35;49.07;93408.06;5037456;28;20029;-76
2022/11/05 01:27:11;;;;;;;24.15;14.30;;;;;;;13.17;49.11;93372.81;5033829;28;20690;-76
2022/11/05 01:29:36;;;;;;;28.05;13.32;;;;;;;13.35;49.05;93395.44;5037459;28;20032;-76
2022/11/05 01:32:02;;;;;;;25.77;13.48;;;;;;;13.30;48.90;93393.00;5036444;28;20555;-76
2022/11/05 01:34:27;;;;;;;22.70;13.07;;;;;;;13.05;49.09;93348.84;5035603;28;20025;-76
2022/11/05 01:36:53;;;;;;;20.85;13.38;;;;;;;13.02;49.49;93349.50;5037894;28;20017;-76
2022/11/05 01:39:18;;;;;;;24.17;12.93;;;;;;;12.67;49.83;93344.72;5037007;28;20029;-75
2022/11/05 01:41:43;;;;;;;19.77;13.15;;;;;;;12.93;49.75;93362.22;5037037;28;20537;-76
2022/11/05 01:44:46;;;;;;;24.67;13.73;;;;;;;13.04;49.55;93365.97;5035420;28;20489;-76
2022/11/05 01:47:40;;;;;;;25.02;12.75;;;;;;;12.97;49.64;93365.75;5035607;28;20017;-76
2022/11/05 01:50:19;;;;;;;21.95;13.23;;;;;;;12.91;49.74;93353.78;5000097;28;20048;-77
2022/11/05 01:52:46;;;;;;;25.75;13.52;;;;;;;12.75;49.79;93321.69;5035162;28;20029;-76
2022/11/05 01:55:15;;;;;;;23.48;14.70;;;;;;;13.04;49.58;93355.31;5034837;28;20116;-76
2022/11/05 01:57:40;;;;;;;23.48;13.50;;;;;;;12.81;49.03;93339.78;5035270;28;20260;-76
2022/11/05 02:00:06;;;;;;;24.60;13.25;;;;;;;13.04;49.21;93357.97;5035787;28;20055;-76
2022/11/05 02:02:32;;;;;;;23.65;12.07;;;;;;;12.86;49.31;93328.88;5036650;28;20021;-76
2022/11/05 02:05:02;;;;;;;22.13;13.77;;;;;;;12.61;49.37;93311.41;5035466;28;20111;-76
2022/11/05 02:07:29;;;;;;;23.45;13.35;;;;;;;12.75;50.15;93351.03;5011878;28;20490;-77
2022/11/05 02:10:02;;;;;;;25.10;14.05;;;;;;;12.86;49.66;93365.44;5036440;28;20572;-76
2022/11/05 02:12:29;;;;;;;28.15;15.52;;;;;;;12.85;50.25;93367.38;5035063;28;20039;-77
2022/11/05 02:14:57;;;;;;;26.42;15.85;;;;;;;12.75;50.39;93362.50;5034613;28;20043;-77
2022/11/05 02:18:11;;;;;;;25.60;15.35;;;;;;;12.74;50.52;93360.94;5035918;28;20538;-76
2022/11/05 02:20:59;;;;;;;26.67;13.85;;;;;;;12.76;50.03;93352.59;5019065;28;20514;-76
2022/11/05 02:23:30;;;;;;;26.58;15.18;;;;;;;12.68;50.86;93358.84;5033559;28;20048;-77
2022/11/05 02:26:13;;;;;;;27.95;14.43;;;;;;;12.76;50.61;93360.63;5036522;28;20056;-75
2022/11/05 02:29:27;;;;;;;25.92;15.45;;;;;;;12.62;50.93;93362.84;5035510;28;20024;-76
2022/11/05 02:32:00;;;;;;;23.83;13.77;;;;;;;12.67;50.97;93349.25;5017335;28;20029;-76
2022/11/05 02:34:51;;;;;;;24.00;15.65;;;;;;;12.69;51.14;93353.16;5035495;28;20074;-77
2022/11/05 02:37:33;;;;;;;29.90;15.85;;;;;;;12.65;51.05;93351.50;5026971;28;20040;-77
2022/11/05 02:40:30;;;;;;;22.25;14.57;;;;;;;12.71;50.57;93360.84;5036030;28;20689;-76
2022/11/05 02:43:16;;;;;;;21.25;13.05;;;;;;;12.75;50.32;93353.72;5036017;28;20112;-76
2022/11/05 02:46:02;;;;;;;24.38;13.55;;;;;;;12.78;50.05;93348.47;5036205;28;20090;-76
2022/11/05 02:48:45;;;;;;;23.48;12.73;;;;;;;12.52;50.43;93336.63;5035424;28;20037;-77
2022/11/05 02:51:13;;;;;;;17.92;11.90;;;;;;;12.70;49.78;93356.63;5033636;28;20099;-77
2022/11/05 02:53:49;;;;;;;23.40;12.90;;;;;;;12.57;49.83;93337.13;5035592;28;20036;-76
2022/11/05 02:56:26;;;;;;;17.70;10.68;;;;;;;12.48;49.46;93315.16;5034483;28;20029;-76
2022/11/05 02:58:51;;;;;;;13.90;9.98;;;;;;;12.70;49.12;93338.72;5034067;28;20033;-76
2022/11/05 03:01:17;;;;;;;16.13;10.07;;;;;;;12.46;49.27;93331.50;5034988;28;20023;-76
2022/11/05 03:04:04;;;;;;;19.75;10.27;;;;;;;12.36;48.82;93302.63;5035302;28;20107;-76
2022/11/05 03:06:54;;;;;;;17.30;8.98;;;;;;;12.73;48.94;93364.72;5036065;28;20130;-76
2022/11/05 03:09:39;;;;;;;18.15;9.73;;;;;;;12.66;48.81;93359.19;5037774;28;20079;-75
2022/11/05 03:12:22;;;;;;;14.82;9.27;;;;;;;12.65;48.88;93362.97;5039491;28;20028;-76
2022/11/05 03:14:56;;;;;;;17.17;9.57;;;;;;;12.62;48.68;93358.28;5038804;28;20025;-76
2022/11/05 03:17:49;;;;;;;19.48;9.35;;;;;;;12.65;48.77;93364.84;5038215;28;20512;-76
2022/11/05 03:20:29;;;;;;;16.33;9.15;;;;;;;12.48;48.64;93333.81;5038593;28;20564;-76
2022/11/05 03:22:58;;;;;;;17.15;10.38;;;;;;;12.51;49.40;93359.84;5038792;28;20496;-77
2022/11/05 03:25:25;;;;;;;18.45;10.68;;;;;;;12.23;49.22;93313.63;5038856;28;20029;-75
2022/11/05 03:27:59;;;;;;;19.65;11.00;;;;;;;12.28;49.41;93330.19;5038520;28;20401;-76
2022/11/05 03:30:25;;;;;;;17.98;10.63;;;;;;;12.51;49.34;93357.19;5038446;28;20017;-77
2022/11/05 03:32:59;;;;;;;15.85;10.18;;;;;;;12.55;49.49;93374.06;5021944;28;20028;-76
2022/11/05 03:35:30;;;;;;;23.47;11.83;;;;;;;12.52;49.41;93376.63;5037376;28;20147;-76
2022/11/05 03:38:03;;;;;;;13.95;9.70;;;;;;;12.25;49.41;93348.75;5038507;28;20087;-76
2022/11/05 03:40:33;;;;;;;17.33;9.55;;;;;;;12.41;49.83;93395.75;5037715;28;20531;-76
2022/11/05 03:43:02;;;;;;;19.95;10.52;;;;;;;12.44;49.76;93399.63;5037615;28;20036;-75
2022/11/05 03:45:45;;;;;;;22.08;11.93;;;;;;;12.32;50.05;93383.63;5037175;28;20082;-76
2022/11/05 03:48:13;;;;;;;21.00;13.00;;;;;;;12.35;50.62;93396.28;5036703;28;20024;-77
2022/11/05 03:50:46;;;;;;;22.05;10.82;;;;;;;12.24;50.86;93406.63;5038014;28;20372;-75
2022/11/05 03:53:20;;;;;;;18.20;11.35;;;;;;;12.25;50.66;93399.41;5038350;28;20493;-76
2022/11/05 03:56:17;;;;;;;16.42;10.65;;;;;;;12.10;50.33;93371.50;5038689;28;20039;-76
2022/11/05 03:58:44;;;;;;;17.65;11.25;;;;;;;12.34;50.42;93390.19;5036987;28;20028;-76
2022/11/05 04:01:11;;;;;;;21.10;12.00;;;;;;;12.34;50.23;93394.72;5037030;28;20029;-76
2022/11/05 04:03:37;;;;;;;23.33;10.55;;;;;;;12.31;50.23;93390.84;5038515;28;20353;-76
2022/11/05 04:14:16;;;;;;;14.75;9.50;;;;;;;12.44;49.63;93396.94;5039330;28;20357;-76
2022/11/05 04:24:53;;;;;;;15.05;8.98;;;;;;;12.34;48.98;93368.84;5037310;28;20990;-78
2022/11/05 04:27:18;;;;;;;16.90;8.30;;;;;;;12.55;48.96;93403.41;5038004;28;20029;-77
2022/11/05 04:32:28;;;;;;;13.63;8.10;;;;;;;12.62;48.91;93416.19;5037707;28;20044;-78
2022/11/05 04:34:53;;;;;;;25.65;9.32;;;;;;;12.27;48.60;93367.88;5035738;28;20017;-77
2022/11/05 04:37:18;;;;;;;21.77;8.27;;;;;;;12.52;48.43;93417.38;5036676;28;20861;-76
2022/11/05 04:39:44;;;;;;;38.60;10.02;;;;;;;12.22;48.45;93376.84;5037339;28;20078;-77
2022/11/05 04:42:09;;;;;;;16.98;8.52;;;;;;;12.52;48.81;93427.31;5036348;28;20029;-78
2022/11/05 04:44:35;;;;;;;15.98;8.93;;;;;;;12.61;48.63;93431.44;5038239;28;20055;-77
2022/11/05 04:47:00;;;;;;;21.77;9.65;;;;;;;12.43;48.71;93400.72;5036237;28;20021;-76
2022/11/05 04:49:25;;;;;;;18.40;8.55;;;;;;;12.61;48.73;93428.78;5038557;28;20044;-77
2022/11/05 04:51:51;;;;;;;15.57;8.82;;;;;;;12.62;48.54;93430.31;5036420;28;20051;-76
2022/11/05 04:54:16;;;;;;;13.93;7.70;;;;;;;12.61;48.47;93426.09;5038420;28;20103;-76
2022/11/05 04:56:42;;;;;;;14.00;7.72;;;;;;;12.65;48.62;93419.00;5017971;28;20029;-77
2022/11/05 04:59:07;;;;;;;12.80;7.88;;;;;;;12.62;48.60;93410.84;5036560;28;20044;-77
2022/11/05 05:01:32;;;;;;;14.27;8.10;;;;;;;12.66;48.43;93422.44;5036834;28;20025;-77
2022/11/05 05:03:58;;;;;;;20.70;8.57;;;;;;;12.52;48.47;93395.28;5038060;28;20412;-76
2022/11/05 05:06:23;;;;;;;11.63;7.55;;;;;;;12.67;48.70;93411.41;5019846;28;20040;-78
2022/11/05 05:08:50;;;;;;;15.35;8.85;;;;;;;12.73;48.49;93423.41;5035471;28;20366;-76
2022/11/05 05:11:18;;;;;;;18.65;9.68;;;;;;;12.77;48.46;93418.19;5037874;28;20032;-76
2022/11/05 05:13:43;;;;;;;16.77;9.50;;;;;;;12.73;48.57;93412.75;5035528;28;20067;-77
2022/11/05 05:16:23;;;;;;;15.85;9.45;;;;;;;12.67;48.41;93403.41;5037115;28;20153;-77
2022/11/05 05:18:49;;;;;;;20.40;9.13;;;;;;;12.84;48.27;93429.84;5036256;28;20033;-77
2022/11/05 05:24:00;;;;;;;16.13;9.43;;;;;;;12.67;48.39;93421.28;5037519;28;20396;-76
2022/11/05 05:26:26;;;;;;;21.35;8.48;;;;;;;12.66;48.44;93412.53;5036697;28;20322;-77
2022/11/05 05:28:52;;;;;;;15.13;9.02;;;;;;;12.80;48.31;93450.31;5037274;28;20106;-77
2022/11/05 05:31:18;;;;;;;16.40;10.40;;;;;;;12.72;48.17;93442.41;5035044;28;20506;-76
2022/11/05 05:33:44;;;;;;;17.17;9.57;;;;;;;12.83;48.73;93462.22;5037252;28;20050;-76
2022/11/05 05:36:09;;;;;;;16.98;8.90;;;;;;;12.79;48.78;93459.44;5035683;28;20030;-77
2022/11/05 05:38:35;;;;;;;19.92;9.77;;;;;;;12.89;48.78;93469.66;5034722;28;20393;-76
2022/11/05 05:41:00;;;;;;;22.50;10.25;;;;;;;12.93;48.92;93475.09;5037090;28;20116;-76
2022/11/05 05:43:33;;;;;;;21.77;10.68;;;;;;;12.91;48.76;93481.91;5034843;28;20079;-77
2022/11/05 05:46:03;;;;;;;24.25;11.18;;;;;;;12.95;48.79;93482.78;5036556;28;20037;-77
2022/11/05 05:48:28;;;;;;;20.13;12.85;;;;;;;12.99;49.12;93486.34;5034625;28;20580;-76
2022/11/05 05:50:54;;;;;;;23.95;11.13;;;;;;;12.93;49.08;93469.75;5035425;28;20029;-75
2022/11/05 05:53:19;;;;;;;18.05;11.68;;;;;;;13.02;49.29;93480.31;5035341;28;20040;-77
2022/11/05 05:55:44;;;;;;;26.65;13.75;;;;;;;13.01;49.62;93470.75;5036084;28;20035;-78
2022/11/05 05:58:10;;;;;;;22.33;13.45;;;;;;;13.13;49.44;93478.75;5034852;28;20044;-78
2022/11/05 06:00:35;;;;;;;22.73;13.65;;;;;;;12.89;49.83;93453.66;5035029;28;20036;-76
2022/11/05 06:03:00;;;;;;;24.25;15.43;;;;;;;13.07;49.91;93469.41;5035537;28;20135;-78
2022/11/05 06:05:26;;;;;;;27.67;16.70;;;;;;;13.20;49.83;93481.63;5035045;28;20036;-77
2022/11/05 06:07:55;;;;;;;32.90;17.20;;;;;;;13.25;49.97;93470.72;5034558;28;20100;-76
2022/11/05 06:10:21;;;;;;;27.80;16.38;;;;;;;13.15;49.85;93455.16;5035370;28;20303;-77
2022/11/05 06:12:47;;;;;;;26.92;16.48;;;;;;;13.31;49.96;93466.69;5035718;28;20128;-78
2022/11/05 06:15:12;;;;;;;32.45;17.92;;;;;;;13.40;49.78;93472.66;5035786;28;20476;-76
2022/11/05 06:17:38;;;;;;;29.50;17.65;;;;;;;13.27;49.98;93460.47;5035539;28;20100;-77
2022/11/05 06:20:03;;;;;;;27.20;16.25;;;;;;;13.28;49.98;93459.34;5035942;28;20036;-77
2022/11/05 06:22:29;;;;;;;26.95;17.00;;;;;;;13.45;50.23;93480.44;5036061;28;20052;-76
2022/11/05 06:24:54;;;;;;;29.45;17.73;;;;;;;13.14;50.42;93432.25;5035463;28;20564;-77
2022/11/05 06:27:19;;;;;;;27.70;18.58;;;;;;;13.45;50.06;93477.78;5036204;28;20032;-76
2022/11/05 06:29:45;;;;;;;30.55;18.35;;;;;;;13.45;50.07;93461.75;5035851;28;20028;-77
2022/11/05 06:32:10;;;;;;;26.17;16.90;;;;;;;13.44;50.21;93451.41;5036544;28;20029;-77
2022/11/05 06:34:35;;;;;;;30.60;17.33;;;;;;;13.23;50.23;93441.69;5035860;28;20600;-76
2022/11/05 06:37:01;;;;;;;28.38;16.85;;;;;;;13.40;50.25;93451.28;5015540;28;20033;-76
2022/11/05 06:39:26;;;;;;;30.40;18.73;;;;;;;13.35;50.29;93424.81;5014963;28;20035;-76
2022/11/05 06:41:52;;;;;;;32.50;18.13;;;;;;;13.62;50.45;93472.19;5032282;28;20072;-76
2022/11/05 06:44:17;;;;;;;25.25;16.95;;;;;;;13.60;50.37;93460.28;5036175;28;20061;-76
2022/11/05 06:46:42;;;;;;;27.45;16.70;;;;;;;13.67;50.39;93466.59;5036521;28;20020;-76
2022/11/05 06:49:08;;;;;;;31.17;16.63;;;;;;;13.59;50.38;93446.13;5035996;28;20452;-77
2022/11/05 06:51:33;;;;;;;27.23;15.63;;;;;;;13.46;50.85;93439.25;5036042;28;20071;-76
2022/11/05 06:53:58;;;;;;;30.52;16.77;;;;;;;13.49;50.66;93438.59;5036888;28;20044;-77
2022/11/05 06:56:24;;;;;;;32.63;17.77;;;;;;;13.47;51.00;93451.50;5037298;28;20507;-76
2022/11/05 06:58:49;;;;;;;28.73;17.63;;;;;;;13.15;51.99;93436.47;5032420;28;20135;-76
2022/11/05 07:01:15;;;;;;;28.50;17.55;;;;;;;13.02;52.58;93440.28;5027838;28;20040;-76
2022/11/05 07:03:40;;;;;;;34.10;19.25;;;;;;;13.09;52.22;93417.25;5013733;28;20033;-77
2022/11/05 07:06:06;;;;;;;35.28;20.92;;;;;;;13.06;52.42;93430.47;5034502;28;20055;-77
2022/11/05 07:08:34;;;;;;;33.53;20.73;;;;;;;13.11;52.01;93411.53;5035871;28;20128;-75
2022/11/05 07:10:59;;;;;;;36.95;19.85;;;;;;;13.38;51.79;93421.50;5035534;28;20033;-76
2022/11/05 07:13:25;;;;;;;31.95;19.08;;;;;;;13.52;51.80;93443.25;5037789;28;20451;-77
2022/11/05 07:15:50;;;;;;;34.13;19.02;;;;;;;13.58;51.58;93430.44;5036483;28;20021;-77
2022/11/05 07:18:16;;;;;;;35.78;17.95;;;;;;;13.74;51.12;93440.06;5035062;28;20048;-77
2022/11/05 07:20:41;;;;;;;25.92;16.92;;;;;;;13.92;50.77;93451.25;5034233;28;20025;-76
2022/11/05 07:23:10;;;;;;;31.75;16.33;;;;;;;13.96;50.83;93451.31;5027204;28;20032;-77
2022/11/05 07:25:35;;;;;;;27.08;16.13;;;;;;;13.91;50.14;93422.16;5032143;28;20852;-77
2022/11/05 07:28:01;;;;;;;25.17;15.57;;;;;;;13.62;50.13;93386.69;5033511;28;20025;-76
2022/11/05 07:30:28;;;;;;;23.63;14.82;;;;;;;13.59;49.78;93418.66;5027921;28;20037;-77
2022/11/05 07:32:54;;;;;;;27.60;15.23;;;;;;;13.85;49.96;93412.84;5021588;28;20055;-77
2022/11/05 07:35:19;;;;;;;29.23;15.98;;;;;;;13.70;50.65;93425.84;5033351;28;20493;-76
2022/11/05 07:37:47;;;;;;;26.65;16.33;;;;;;;14.11;50.01;93439.88;5030357;28;20029;-77
2022/11/05 07:40:13;;;;;;;21.55;14.35;;;;;;;14.23;50.12;93434.44;5026474;28;20021;-77
2022/11/05 07:42:47;;;;;;;29.02;15.38;;;;;;;14.10;50.14;93424.94;5034570;28;20655;-76
2022/11/05 07:45:13;;;;;;;29.02;15.40;;;;;;;14.42;50.12;93439.88;5033637;28;20047;-76
2022/11/05 07:47:48;;;;;;;27.75;15.20;;;;;;;14.30;49.63;93433.84;5034515;28;20033;-76
2022/11/05 07:50:16;;;;;;;26.15;14.52;;;;;;;14.07;50.25;93393.56;5034802;28;20416;-76
2022/11/05 07:52:41;;;;;;;21.27;13.68;;;;;;;14.43;49.40;93433.41;5035061;28;20087;-78
2022/11/05 07:55:08;;;;;;;22.33;13.52;;;;;;;14.24;49.30;93419.94;5035693;28;20448;-77
2022/11/05 07:57:45;;;;;;;25.25;13.57;;;;;;;14.38;50.27;93425.66;5035279;28;20419;-76
2022/11/05 08:00:13;;;;;;;22.42;12.95;;;;;;;14.25;49.29;93405.47;5034706;28;20048;-77
2022/11/05 08:02:39;;;;;;;23.50;13.45;;;;;;;14.50;48.77;93401.50;5032613;28;20032;-77
2022/11/05 08:05:05;;;;;;;28.17;12.95;;;;;;;14.77;48.42;93423.13;5033428;28;20029;-76
2022/11/05 08:07:30;;;;;;;23.95;13.80;;;;;;;14.20;49.45;93419.09;5032580;28;20935;-77
2022/11/05 08:09:55;;;;;;;21.75;11.18;;;;;;;14.39;49.20;93418.41;5037186;28;20064;-76
2022/11/05 08:12:21;;;;;;;28.65;13.52;;;;;;;14.40;49.20;93396.66;5034287;28;20040;-76
2022/11/05 08:14:46;;;;;;;22.20;12.30;;;;;;;14.47;49.05;93412.88;5027918;28;20074;-77
2022/11/05 08:17:11;;;;;;;21.17;13.43;;;;;;;14.02;49.45;93359.84;5032185;28;20072;-77
2022/11/05 08:19:37;;;;;;;23.63;12.48;;;;;;;14.34;49.69;93418.66;5035475;28;20473;-76
2022/11/05 08:22:02;;;;;;;23.20;13.98;;;;;;;14.30;49.34;93418.59;5033822;28;20021;-76
2022/11/05 08:24:28;;;;;;;27.67;13.85;;;;;;;14.34;49.23;93415.97;5034390;28;20057;-77
2022/11/05 08:26:53;;;;;;;23.63;11.57;;;;;;;14.18;49.67;93411.41;5029379;28;20107;-77
2022/11/05 08:29:19;;;;;;;24.15;13.18;;;;;;;14.32;49.05;93400.31;5035163;28;20060;-76
2022/11/05 08:31:44;;;;;;;19.30;12.38;;;;;;;14.58;48.81;93411.25;5012823;28;20024;-76
2022/11/05 08:34:09;;;;;;;18.85;12.52;;;;;;;14.72;48.46;93388.59;5032026;28;20051;-77
2022/11/05 08:36:35;;;;;;;23.92;12.98;;;;;;;14.80;48.57;93412.53;5035150;28;20154;-77
2022/11/05 08:39:00;;;;;;;22.15;13.10;;;;;;;14.70;48.29;93383.63;5016711;28;20424;-76
2022/11/05 08:41:26;;;;;;;18.83;11.48;;;;;;;14.70;48.16;93405.03;5031863;28;20123;-76
2022/11/05 08:43:55;;;;;;;25.33;12.02;;;;;;;14.88;47.64;93413.44;5031952;28;20032;-76
2022/11/05 08:46:20;;;;;;;20.58;12.77;;;;;;;14.93;47.76;93408.59;5032519;28;20063;-76
2022/11/05 08:48:45;;;;;;;31.80;15.38;;;;;;;14.73;48.12;93393.63;5033059;28;20024;-76
2022/11/05 08:51:11;;;;;;;23.65;14.57;;;;;;;15.10;47.77;93394.06;5035562;28;20039;-77
2022/11/05 08:53:36;;;;;;;24.40;15.65;;;;;;;15.08;47.67;93401.66;5031970;28;20091;-77
2022/11/05 08:56:01;;;;;;;31.88;15.77;;;;;;;14.85;47.84;93390.06;5034260;28;20029;-76
2022/11/05 08:58:27;;;;;;;26.92;14.45;;;;;;;15.09;47.68;93405.88;5013588;28;20641;-76
2022/11/05 09:00:52;;;;;;;20.35;13.90;;;;;;;15.38;47.33;93410.69;5032957;28;20574;-77
2022/11/05 09:03:18;;;;;;;27.00;13.15;;;;;;;15.41;47.36;93401.94;5031693;28;20020;-77
2022/11/05 09:05:43;;;;;;;27.30;14.43;;;;;;;15.42;46.93;93406.19;5034159;28;20025;-76
2022/11/05 09:08:13;;;;;;;31.27;15.13;;;;;;;15.41;46.40;93401.16;5033423;28;20552;-77
2022/11/05 09:10:39;;;;;;;23.23;13.05;;;;;;;15.48;46.65;93400.56;5033603;28;20048;-77
2022/11/05 09:13:05;;;;;;;25.58;14.15;;;;;;;15.17;47.02;93370.06;5033684;28;20025;-76
2022/11/05 09:15:32;;;;;;;30.55;14.98;;;;;;;15.70;46.40;93405.19;5032574;28;20410;-76
2022/11/05 09:17:58;;;;;;;24.50;13.77;;;;;;;15.86;46.30;93403.22;5033243;28;20056;-77
2022/11/05 09:20:23;;;;;;;23.67;13.77;;;;;;;15.91;45.40;93384.16;5032443;28;20515;-77
2022/11/05 09:22:49;;;;;;;28.90;14.98;;;;;;;16.02;44.90;93377.06;5034107;28;20477;-77
2022/11/05 09:25:14;;;;;;;25.40;13.88;;;;;;;15.90;44.86;93331.63;5033240;28;20056;-77
2022/11/05 09:27:40;;;;;;;22.80;13.77;;;;;;;16.29;44.66;93402.81;5016362;28;20445;-76
2022/11/05 09:30:06;;;;;;;21.58;13.50;;;;;;;16.37;44.00;93389.56;5033625;28;20098;-76
2022/11/05 09:32:32;;;;;;;19.55;12.98;;;;;;;16.45;44.44;93385.84;5031168;28;20029;-74
2022/11/05 09:34:59;;;;;;;23.85;14.13;;;;;;;16.45;44.06;93389.31;5030381;28;20033;-76
2022/11/05 09:37:26;;;;;;;25.15;13.35;;;;;;;16.47;44.42;93365.56;5027569;28;20049;-77
2022/11/05 09:39:51;;;;;;;27.05;13.60;;;;;;;16.74;43.97;93387.81;5021820;28;20047;-77
2022/11/05 09:42:20;;;;;;;26.33;13.68;;;;;;;16.84;43.77;93397.94;5027706;28;20036;-77
2022/11/05 09:44:53;;;;;;;23.15;12.80;;;;;;;16.88;43.04;93379.97;5030108;28;20044;-77
2022/11/05 09:47:23;;;;;;;20.10;11.43;;;;;;;16.95;42.59;93387.34;5030959;28;20035;-77
2022/11/05 09:49:52;;;;;;;26.52;13.00;;;;;;;16.64;43.00;93383.84;5029457;28;20595;-77
2022/11/05 09:52:21;;;;;;;38.33;15.48;;;;;;;16.60;43.05;93364.22;5023542;28;20025;-76
2022/11/05 09:54:47;;;;;;;20.00;12.90;;;;;;;16.43;42.75;93364.72;5028270;28;20499;-76
2022/11/05 09:57:17;;;;;;;20.08;12.07;;;;;;;16.33;43.16;93356.53;5028710;28;20382;-76
2022/11/05 09:59:50;;;;;;;20.13;12.43;;;;;;;16.71;42.74;93389.34;5027409;28;20519;-77
2022/11/05 10:02:24;;;;;;;17.40;11.02;;;;;;;16.63;42.47;93390.34;5029230;28;20028;-76
2022/11/05 10:04:55;;;;;;;19.05;11.23;;;;;;;16.60;42.32;93358.09;5013463;28;20719;-77
2022/11/05 10:07:24;;;;;;;23.20;11.75;;;;;;;16.97;42.42;93377.00;5012601;28;20152;-77
2022/11/05 10:09:54;;;;;;;16.25;10.38;;;;;;;17.01;42.21;93361.75;5004786;28;20033;-76
2022/11/05 10:12:51;;;;;;;20.05;11.20;;;;;;;17.17;42.03;93365.81;5030191;28;20136;-77
2022/11/05 10:15:25;;;;;;;24.50;13.27;;;;;;;16.25;42.26;93251.75;4987826;28;20045;-76
2022/11/05 10:17:58;;;;;;;27.27;13.00;;;;;;;17.15;42.60;93370.00;5032646;28;20470;-76
2022/11/05 10:20:32;;;;;;;22.42;13.23;;;;;;;16.95;42.15;93336.31;5031164;28;20477;-77
2022/11/05 10:23:01;;;;;;;26.83;11.40;;;;;;;17.22;41.83;93370.09;5034272;28;20032;-76
2022/11/05 10:25:31;;;;;;;21.60;12.55;;;;;;;17.12;41.83;93363.41;5033832;28;20314;-77
2022/11/05 10:27:58;;;;;;;20.23;12.32;;;;;;;16.68;42.35;93332.88;5036997;28;20040;-77
2022/11/05 10:30:23;;;;;;;24.73;12.23;;;;;;;16.90;42.48;93353.53;5034954;28;20054;-77
2022/11/05 10:32:55;;;;;;;22.77;12.60;;;;;;;16.91;42.32;93338.97;5035915;28;20123;-78
2022/11/05 10:35:22;;;;;;;23.85;11.70;;;;;;;16.83;42.60;93361.47;5032586;28;20504;-77
2022/11/05 10:37:49;;;;;;;23.33;13.30;;;;;;;16.81;42.38;93341.50;5036045;28;20417;-77
2022/11/05 10:40:44;;;;;;;19.98;12.55;;;;;;;17.12;42.18;93363.41;5034556;28;20056;-76
2022/11/05 10:43:15;;;;;;;20.67;12.00;;;;;;;17.18;41.65;93345.88;5012066;28;20145;-77
2022/11/05 10:45:59;;;;;;;21.05;12.95;;;;;;;17.32;41.84;93360.59;5009389;28;20493;-77
2022/11/05 10:48:57;;;;;;;21.15;11.27;;;;;;;16.84;41.83;93314.69;5034172;28;20051;-76
2022/11/05 10:51:23;;;;;;;18.17;11.27;;;;;;;17.14;41.71;93344.28;5029129;28;20127;-76
2022/11/05 10:53:54;;;;;;;19.73;10.98;;;;;;;17.39;41.95;93360.69;5036620;28;20070;-77
2022/11/05 10:56:34;;;;;;;20.25;11.52;;;;;;;17.48;41.65;93353.13;5036408;28;20107;-76
2022/11/05 10:59:00;;;;;;;18.75;11.07;;;;;;;17.55;41.03;93347.84;5036068;28;20033;-75
2022/11/05 11:01:27;;;;;;;17.92;11.18;;;;;;;17.57;40.16;93337.47;5036641;28;20440;-76
2022/11/05 11:04:06;;;;;;;15.82;9.57;;;;;;;17.34;39.29;93320.72;5034896;28;21008;-76
2022/11/05 11:06:36;;;;;;;14.32;9.35;;;;;;;17.43;38.72;93303.16;5036495;28;20377;-75
2022/11/05 11:09:06;;;;;;;13.82;9.63;;;;;;;17.57;38.34;93327.50;5031216;28;20471;-76
2022/11/05 11:11:37;;;;;;;16.08;9.93;;;;;;;17.69;38.56;93329.16;5036629;28;20024;-77
2022/11/05 11:14:04;;;;;;;17.98;8.57;;;;;;;17.22;38.79;93292.16;5035942;28;20144;-76
2022/11/05 11:16:52;;;;;;;15.05;8.70;;;;;;;17.36;38.77;93345.28;5036371;28;20099;-77
2022/11/05 11:19:31;;;;;;;16.38;9.10;;;;;;;17.25;38.43;93341.72;5034725;28;20027;-76
2022/11/05 11:22:02;;;;;;;16.83;8.63;;;;;;;17.10;38.10;93340.75;5036430;28;20028;-76
2022/11/05 11:24:27;;;;;;;12.90;8.32;;;;;;;17.07;38.25;93331.50;5016510;28;20788;-76
2022/11/05 11:26:53;;;;;;;19.88;8.93;;;;;;;17.09;38.44;93321.16;5029978;28;20040;-77
2022/11/05 11:29:18;;;;;;;13.68;8.35;;;;;;;17.31;38.87;93337.53;5035062;28;20070;-76
2022/11/05 11:31:43;;;;;;;15.90;10.07;;;;;;;17.32;38.55;93321.06;5036316;28;20116;-76
2022/11/05 11:34:32;;;;;;;16.15;9.65;;;;;;;17.55;38.42;93339.78;5034940;28;20033;-77
2022/11/05 11:37:07;;;;;;;17.90;8.48;;;;;;;17.58;38.17;93334.41;5035839;28;20480;-76
2022/11/05 11:39:32;;;;;;;13.00;8.75;;;;;;;17.50;38.27;93305.16;5031542;28;20528;-76
2022/11/05 11:42:08;;;;;;;14.77;8.85;;;;;;;17.82;38.28;93333.13;5034378;28;20029;-76
2022/11/05 11:44:45;;;;;;;17.35;8.88;;;;;;;17.87;37.77;93332.78;5034731;28;20070;-76
2022/11/05 11:47:13;;;;;;;16.42;8.20;;;;;;;17.71;36.94;93310.72;5033629;28;20064;-76
2022/11/05 11:49:52;;;;;;;13.80;7.82;;;;;;;17.71;36.79;93310.72;5035404;28;20301;-75
2022/11/05 11:52:30;;;;;;;14.95;9.20;;;;;;;17.45;36.74;93260.53;5031586;28;20453;-76
2022/11/05 11:55:08;;;;;;;12.48;7.93;;;;;;;17.96;37.02;93325.22;5036646;28;20057;-76
2022/11/05 11:57:51;;;;;;;20.25;8.02;;;;;;;17.86;36.76;93322.38;5034391;28;20611;-76
2022/11/05 12:00:18;;;;;;;18.00;9.43;;;;;;;17.57;37.44;93315.97;5037061;28;20074;-76
2022/11/05 12:03:03;;;;;;;18.25;8.93;;;;;;;17.76;37.26;93323.84;5033650;28;20025;-76
2022/11/05 12:06:10;;;;;;;18.90;8.95;;;;;;;17.87;37.23;93326.63;5017156;28;20029;-77
2022/11/05 12:08:41;;;;;;;15.45;9.15;;;;;;;17.82;37.13;93313.53;5004800;28;20037;-77
2022/11/05 12:11:24;;;;;;;12.57;7.03;;;;;;;17.99;37.83;93321.78;5034248;28;20033;-74
2022/11/05 12:14:22;;;;;;;12.63;7.75;;;;;;;18.05;37.88;93316.81;5032672;28;20041;-76
2022/11/05 12:17:16;;;;;;;12.00;7.97;;;;;;;18.11;38.31;93319.94;5034402;28;20049;-77